Baton Rouge Metropolitan Airport Baton Rouge US
ICAO: KBTR
IATA: BTR
Category: Large
Scheduled Services: Yes

Elevation: 70 ft
TransAlt. 18000 ft.

Airport Communications:
APP/DEP:120.3
ATIS:125.2
CLNC DEL:119.4
CTAF:118.45
GND:121.9
DE RIDDER RDO:122.2
TWR:118.45
UNICOM:122.95

KBTR Zoom In..

If you have problems with the map follow the link
https://www.worldairports.se/pages/airport.php?
ICAO=KBTR

Runways:

(A) RW 04L length 7500 ft width 150 ft
---- / hdg 40

(B) RW 04R length 3799 ft width 75 ft
---- / hdg 40

(C) RW 13 length 7004 ft width 150 ft
ILS 110.30 / hdg 130

(D) RW 22L length 3799 ft width 75 ft
---- / hdg 220

(E) RW 22R length 7500 ft width 150 ft
ILS 108.70 / hdg 220

(F) RW 31 length 7004 ft width 150 ft
---- / hdg 310

Location; KBTR
Day. 05 / Time. 21.53 Zulu
* Altimeter: 30.06
* Temperature: 21° c. 69.8°f.
* Wind from: 130° Speed 07 kn.
Dewpoint: 02° c.
Visibility: 10 Statute Miles.
Clouds: Clear (automated report).

KBTR 052153Z 13007KT 10SM CLR 21/02 A3006 RMK AO2 SLP178 T02060022


Wind From 130°
Speed 07 kn.

 
 
jpsmedia worldairports.se 2019   terms of use